This is the latest recevied weather packets stored in our database for station/object DL1EEM-13. If no packets are shown the sender has not sent any weather packets the latest 10 day(s).
| Time | Temp. | Humidity | Pressure | Rain* | Wind** | Luminosity | Snow |
|---|---|---|---|---|---|---|---|
| 1777365040 | 8.89° C | 43% | 1024.5 hPa | - | - | - | - |
| 1777364140 | 8.89° C | 45% | 1024.3 hPa | - | - | - | - |
| 1777363240 | 8.33° C | 47% | 1024.3 hPa | - | - | - | - |
| 1777362340 | 7.78° C | 48% | 1024.3 hPa | - | - | - | - |
| 1777361440 | 7.78° C | 51% | 1024.3 hPa | - | - | - | - |
| 1777360540 | 7.22° C | 52% | 1024.2 hPa | - | - | - | - |
| 1777359639 | 7.22° C | 53% | 1024.4 hPa | - | - | - | - |
| 1777358741 | 6.67° C | 56% | 1024.4 hPa | - | - | - | - |
| 1777357835 | 6.67° C | 57% | 1024.3 hPa | - | - | - | - |
| 1777356935 | 6.11° C | 59% | 1024.2 hPa | - | - | - | - |
| 1777354235 | 5.56° C | 62% | 1024 hPa | - | - | - | - |
| 1777353334 | 5° C | 63% | 1023.9 hPa | - | - | - | - |
| 1777352434 | 4.44° C | 65% | 1023.7 hPa | - | - | - | - |
| 1777308592 | 12.78° C | 51% | 1021.8 hPa | - | - | - | - |
| 1777307692 | 12.22° C | 52% | 1021.6 hPa | - | - | - | - |
| 1777306792 | 12.78° C | 50% | 1021.8 hPa | - | - | - | - |
| 1777305892 | 12.78° C | 49% | 1021.7 hPa | - | - | - | - |
| 1777304992 | 13.33° C | 48% | 1021.8 hPa | - | - | - | - |
| 1777304091 | 12.78° C | 48% | 1021.9 hPa | - | - | - | - |
| 1777303191 | 12.78° C | 48% | 1022.1 hPa | - | - | - | - |
| 1777302293 | 13.33° C | 47% | 1022.3 hPa | - | - | - | - |
| 1777301393 | 13.33° C | 47% | 1022.5 hPa | - | - | - | - |
| 1777300493 | 13.33° C | 46% | 1022.7 hPa | - | - | - | - |
| 1777299593 | 13.89° C | 46% | 1022.7 hPa | - | - | - | - |
| 1777298693 | 14.44° C | 45% | 1022.8 hPa | - | - | - | - |
* Rain since midnight (hover to see other rain measurements)
** Current wind speed in m/s (hover to see current wind gust speed)